sensor_id;sensor_type;location;lat;lon;timestamp;temperature;humidity
24164;DHT22;12319;49.204;8.116;2023-05-07T00:00:37;16.50;72.00
24164;DHT22;12319;49.204;8.116;2023-05-07T00:03:03;16.50;72.30
24164;DHT22;12319;49.204;8.116;2023-05-07T00:05:29;16.40;72.30
24164;DHT22;12319;49.204;8.116;2023-05-07T00:07:54;16.40;72.60
24164;DHT22;12319;49.204;8.116;2023-05-07T00:10:20;16.40;72.80
24164;DHT22;12319;49.204;8.116;2023-05-07T00:12:46;16.40;72.90
24164;DHT22;12319;49.204;8.116;2023-05-07T00:15:11;16.30;72.90
24164;DHT22;12319;49.204;8.116;2023-05-07T00:17:37;16.30;73.10
24164;DHT22;12319;49.204;8.116;2023-05-07T00:20:03;16.20;73.10
24164;DHT22;12319;49.204;8.116;2023-05-07T00:22:30;16.20;73.40
24164;DHT22;12319;49.204;8.116;2023-05-07T00:24:56;16.30;73.60
24164;DHT22;12319;49.204;8.116;2023-05-07T00:27:22;16.10;73.50
24164;DHT22;12319;49.204;8.116;2023-05-07T00:29:47;16.10;73.60
24164;DHT22;12319;49.204;8.116;2023-05-07T00:32:13;16.50;74.00
24164;DHT22;12319;49.204;8.116;2023-05-07T00:34:39;16.10;73.90
24164;DHT22;12319;49.204;8.116;2023-05-07T00:37:05;16.10;74.10
24164;DHT22;12319;49.204;8.116;2023-05-07T00:39:32;16.10;74.20
24164;DHT22;12319;49.204;8.116;2023-05-07T00:41:58;16.00;74.30
24164;DHT22;12319;49.204;8.116;2023-05-07T00:44:24;16.00;74.40
24164;DHT22;12319;49.204;8.116;2023-05-07T00:46:49;16.00;74.50
24164;DHT22;12319;49.204;8.116;2023-05-07T00:49:15;16.00;74.70
24164;DHT22;12319;49.204;8.116;2023-05-07T00:51:41;16.00;75.00
24164;DHT22;12319;49.204;8.116;2023-05-07T00:54:07;15.90;75.00
24164;DHT22;12319;49.204;8.116;2023-05-07T00:56:33;15.90;75.10
24164;DHT22;12319;49.204;8.116;2023-05-07T00:59:01;15.90;75.20
24164;DHT22;12319;49.204;8.116;2023-05-07T01:01:26;15.90;75.40
24164;DHT22;12319;49.204;8.116;2023-05-07T01:03:53;15.80;75.50
24164;DHT22;12319;49.204;8.116;2023-05-07T01:06:19;15.80;75.50
24164;DHT22;12319;49.204;8.116;2023-05-07T01:08:46;15.80;75.70
24164;DHT22;12319;49.204;8.116;2023-05-07T01:11:13;15.80;75.70
24164;DHT22;12319;49.204;8.116;2023-05-07T01:13:39;15.70;75.80
24164;DHT22;12319;49.204;8.116;2023-05-07T01:16:06;15.70;76.00
24164;DHT22;12319;49.204;8.116;2023-05-07T01:18:32;15.70;76.20
24164;DHT22;12319;49.204;8.116;2023-05-07T01:20:58;15.60;76.10
24164;DHT22;12319;49.204;8.116;2023-05-07T01:23:25;15.60;76.40
24164;DHT22;12319;49.204;8.116;2023-05-07T01:25:52;15.60;76.40
24164;DHT22;12319;49.204;8.116;2023-05-07T01:28:18;15.60;76.60
24164;DHT22;12319;49.204;8.116;2023-05-07T01:30:47;15.60;76.80
24164;DHT22;12319;49.204;8.116;2023-05-07T01:33:16;15.60;77.00
24164;DHT22;12319;49.204;8.116;2023-05-07T01:35:46;15.40;76.90
24164;DHT22;12319;49.204;8.116;2023-05-07T01:38:13;15.50;76.90
24164;DHT22;12319;49.204;8.116;2023-05-07T01:40:39;15.40;77.40
24164;DHT22;12319;49.204;8.116;2023-05-07T01:43:05;15.30;77.10
24164;DHT22;12319;49.204;8.116;2023-05-07T01:45:31;15.40;77.30
24164;DHT22;12319;49.204;8.116;2023-05-07T01:47:58;15.40;77.40
24164;DHT22;12319;49.204;8.116;2023-05-07T01:50:25;15.30;77.20
24164;DHT22;12319;49.204;8.116;2023-05-07T01:52:51;15.40;77.70
24164;DHT22;12319;49.204;8.116;2023-05-07T01:55:17;15.30;77.80
24164;DHT22;12319;49.204;8.116;2023-05-07T01:57:43;15.20;77.90
24164;DHT22;12319;49.204;8.116;2023-05-07T02:00:08;15.30;78.20
24164;DHT22;12319;49.204;8.116;2023-05-07T02:02:34;15.20;78.20
24164;DHT22;12319;49.204;8.116;2023-05-07T02:05:00;15.20;78.40
24164;DHT22;12319;49.204;8.116;2023-05-07T02:07:29;15.20;78.50
24164;DHT22;12319;49.204;8.116;2023-05-07T02:09:54;15.20;78.50
24164;DHT22;12319;49.204;8.116;2023-05-07T02:12:23;15.10;78.60
24164;DHT22;12319;49.204;8.116;2023-05-07T02:14:49;15.10;78.60
24164;DHT22;12319;49.204;8.116;2023-05-07T02:17:14;15.00;78.70
24164;DHT22;12319;49.204;8.116;2023-05-07T02:19:40;15.00;78.80
24164;DHT22;12319;49.204;8.116;2023-05-07T02:22:06;15.00;79.10
24164;DHT22;12319;49.204;8.116;2023-05-07T02:24:32;15.00;79.30
24164;DHT22;12319;49.204;8.116;2023-05-07T02:26:57;14.90;79.20
24164;DHT22;12319;49.204;8.116;2023-05-07T02:29:23;14.90;79.30
24164;DHT22;12319;49.204;8.116;2023-05-07T02:31:48;14.90;79.60
24164;DHT22;12319;49.204;8.116;2023-05-07T02:34:18;14.90;79.70
24164;DHT22;12319;49.204;8.116;2023-05-07T02:36:44;14.90;79.70
24164;DHT22;12319;49.204;8.116;2023-05-07T02:39:12;14.80;79.90
24164;DHT22;12319;49.204;8.116;2023-05-07T02:41:37;14.80;80.00
24164;DHT22;12319;49.204;8.116;2023-05-07T02:44:03;14.80;80.10
24164;DHT22;12319;49.204;8.116;2023-05-07T02:46:29;14.80;80.30
24164;DHT22;12319;49.204;8.116;2023-05-07T02:48:54;14.70;80.30
24164;DHT22;12319;49.204;8.116;2023-05-07T02:51:21;14.70;80.50
24164;DHT22;12319;49.204;8.116;2023-05-07T02:53:47;14.70;80.60
24164;DHT22;12319;49.204;8.116;2023-05-07T02:56:13;14.70;80.70
24164;DHT22;12319;49.204;8.116;2023-05-07T02:58:38;14.70;80.90
24164;DHT22;12319;49.204;8.116;2023-05-07T03:01:05;14.70;81.10
24164;DHT22;12319;49.204;8.116;2023-05-07T03:03:30;14.60;81.10
24164;DHT22;12319;49.204;8.116;2023-05-07T03:05:56;14.60;81.20
24164;DHT22;12319;49.204;8.116;2023-05-07T03:08:22;14.60;81.10
24164;DHT22;12319;49.204;8.116;2023-05-07T03:10:48;14.60;81.50
24164;DHT22;12319;49.204;8.116;2023-05-07T03:13:13;14.60;81.60
24164;DHT22;12319;49.204;8.116;2023-05-07T03:15:39;14.70;81.90
24164;DHT22;12319;49.204;8.116;2023-05-07T03:18:04;14.60;81.70
24164;DHT22;12319;49.204;8.116;2023-05-07T03:20:30;14.50;82.10
24164;DHT22;12319;49.204;8.116;2023-05-07T03:22:55;14.50;82.20
24164;DHT22;12319;49.204;8.116;2023-05-07T03:25:21;14.50;82.30
24164;DHT22;12319;49.204;8.116;2023-05-07T03:27:47;14.50;82.40
24164;DHT22;12319;49.204;8.116;2023-05-07T03:30:12;14.40;82.50
24164;DHT22;12319;49.204;8.116;2023-05-07T03:32:38;14.40;82.60
24164;DHT22;12319;49.204;8.116;2023-05-07T03:35:04;14.40;82.70
24164;DHT22;12319;49.204;8.116;2023-05-07T03:37:30;14.40;83.50
24164;DHT22;12319;49.204;8.116;2023-05-07T03:39:55;14.40;83.10
24164;DHT22;12319;49.204;8.116;2023-05-07T03:42:21;14.40;83.10
24164;DHT22;12319;49.204;8.116;2023-05-07T03:44:46;14.30;83.20
24164;DHT22;12319;49.204;8.116;2023-05-07T03:47:12;14.40;83.40
24164;DHT22;12319;49.204;8.116;2023-05-07T03:49:38;14.40;83.80
24164;DHT22;12319;49.204;8.116;2023-05-07T03:52:05;14.40;83.80
24164;DHT22;12319;49.204;8.116;2023-05-07T03:54:30;14.30;83.90
24164;DHT22;12319;49.204;8.116;2023-05-07T03:56:56;14.30;83.90
24164;DHT22;12319;49.204;8.116;2023-05-07T03:59:22;14.30;84.10
24164;DHT22;12319;49.204;8.116;2023-05-07T04:01:47;14.30;84.20
24164;DHT22;12319;49.204;8.116;2023-05-07T04:04:14;14.30;84.30
24164;DHT22;12319;49.204;8.116;2023-05-07T04:06:40;14.30;84.40
24164;DHT22;12319;49.204;8.116;2023-05-07T04:09:06;14.30;84.50
24164;DHT22;12319;49.204;8.116;2023-05-07T04:11:32;14.30;84.90
24164;DHT22;12319;49.204;8.116;2023-05-07T04:13:57;14.30;84.90
24164;DHT22;12319;49.204;8.116;2023-05-07T04:16:23;14.30;85.00
24164;DHT22;12319;49.204;8.116;2023-05-07T04:18:48;14.30;85.20
24164;DHT22;12319;49.204;8.116;2023-05-07T04:21:15;14.40;85.20
24164;DHT22;12319;49.204;8.116;2023-05-07T04:23:41;14.30;85.30
24164;DHT22;12319;49.204;8.116;2023-05-07T04:26:06;14.40;85.30
24164;DHT22;12319;49.204;8.116;2023-05-07T04:28:32;14.40;85.60
24164;DHT22;12319;49.204;8.116;2023-05-07T04:30:57;14.50;85.60
24164;DHT22;12319;49.204;8.116;2023-05-07T04:33:23;14.50;85.60
24164;DHT22;12319;49.204;8.116;2023-05-07T04:35:48;14.50;85.70
24164;DHT22;12319;49.204;8.116;2023-05-07T04:38:14;14.60;85.80
24164;DHT22;12319;49.204;8.116;2023-05-07T04:40:40;14.70;86.10
24164;DHT22;12319;49.204;8.116;2023-05-07T04:43:06;14.60;85.80
24164;DHT22;12319;49.204;8.116;2023-05-07T04:45:32;14.70;85.80
24164;DHT22;12319;49.204;8.116;2023-05-07T04:47:58;14.70;85.70
24164;DHT22;12319;49.204;8.116;2023-05-07T04:50:23;14.70;85.90
24164;DHT22;12319;49.204;8.116;2023-05-07T04:52:49;14.80;86.00
24164;DHT22;12319;49.204;8.116;2023-05-07T04:55:15;14.90;86.00
24164;DHT22;12319;49.204;8.116;2023-05-07T04:57:41;15.00;86.00
24164;DHT22;12319;49.204;8.116;2023-05-07T05:00:07;15.10;86.00
24164;DHT22;12319;49.204;8.116;2023-05-07T05:02:36;15.10;86.00
24164;DHT22;12319;49.204;8.116;2023-05-07T05:05:02;15.20;86.00
24164;DHT22;12319;49.204;8.116;2023-05-07T05:07:28;15.30;85.90
24164;DHT22;12319;49.204;8.116;2023-05-07T05:09:54;15.40;85.60
24164;DHT22;12319;49.204;8.116;2023-05-07T05:12:20;15.50;85.70
24164;DHT22;12319;49.204;8.116;2023-05-07T05:14:45;15.60;85.40
24164;DHT22;12319;49.204;8.116;2023-05-07T05:17:11;15.70;85.30
24164;DHT22;12319;49.204;8.116;2023-05-07T05:19:36;15.80;85.20
24164;DHT22;12319;49.204;8.116;2023-05-07T05:22:02;15.80;85.20
24164;DHT22;12319;49.204;8.116;2023-05-07T05:24:29;15.90;85.20
24164;DHT22;12319;49.204;8.116;2023-05-07T05:26:55;16.00;85.20
24164;DHT22;12319;49.204;8.116;2023-05-07T05:29:21;16.20;85.20
24164;DHT22;12319;49.204;8.116;2023-05-07T05:31:46;16.30;85.10
24164;DHT22;12319;49.204;8.116;2023-05-07T05:34:12;16.50;85.00
24164;DHT22;12319;49.204;8.116;2023-05-07T05:36:37;16.60;84.80
24164;DHT22;12319;49.204;8.116;2023-05-07T05:39:03;16.70;84.50
24164;DHT22;12319;49.204;8.116;2023-05-07T05:41:29;16.80;84.30
24164;DHT22;12319;49.204;8.116;2023-05-07T05:43:55;17.00;84.20
24164;DHT22;12319;49.204;8.116;2023-05-07T05:46:21;17.00;83.90
24164;DHT22;12319;49.204;8.116;2023-05-07T05:48:46;17.10;83.50
24164;DHT22;12319;49.204;8.116;2023-05-07T05:51:12;17.20;83.50
24164;DHT22;12319;49.204;8.116;2023-05-07T05:53:38;17.20;83.50
24164;DHT22;12319;49.204;8.116;2023-05-07T05:56:03;17.30;83.60
24164;DHT22;12319;49.204;8.116;2023-05-07T05:58:29;17.50;83.50
24164;DHT22;12319;49.204;8.116;2023-05-07T06:00:55;17.60;83.20
24164;DHT22;12319;49.204;8.116;2023-05-07T06:03:21;17.80;83.00
24164;DHT22;12319;49.204;8.116;2023-05-07T06:05:47;18.10;82.90
24164;DHT22;12319;49.204;8.116;2023-05-07T06:08:13;18.10;82.50
24164;DHT22;12319;49.204;8.116;2023-05-07T06:10:38;18.30;82.30
24164;DHT22;12319;49.204;8.116;2023-05-07T06:13:04;18.40;82.00
24164;DHT22;12319;49.204;8.116;2023-05-07T06:15:30;18.50;81.70
24164;DHT22;12319;49.204;8.116;2023-05-07T06:17:56;18.60;81.60
24164;DHT22;12319;49.204;8.116;2023-05-07T06:20:23;18.90;81.60
24164;DHT22;12319;49.204;8.116;2023-05-07T06:22:48;19.20;81.30
24164;DHT22;12319;49.204;8.116;2023-05-07T06:25:14;20.10;81.80
24164;DHT22;12319;49.204;8.116;2023-05-07T06:27:40;21.60;81.00
24164;DHT22;12319;49.204;8.116;2023-05-07T06:30:06;22.80;78.30
24164;DHT22;12319;49.204;8.116;2023-05-07T06:32:32;23.30;75.60
24164;DHT22;12319;49.204;8.116;2023-05-07T06:34:57;23.50;74.20
24164;DHT22;12319;49.204;8.116;2023-05-07T06:37:23;23.80;73.40
24164;DHT22;12319;49.204;8.116;2023-05-07T06:39:49;23.80;72.60
24164;DHT22;12319;49.204;8.116;2023-05-07T06:42:14;23.70;72.00
24164;DHT22;12319;49.204;8.116;2023-05-07T06:44:40;23.70;71.80
24164;DHT22;12319;49.204;8.116;2023-05-07T06:47:06;23.80;71.40
24164;DHT22;12319;49.204;8.116;2023-05-07T06:49:31;24.00;71.30
24164;DHT22;12319;49.204;8.116;2023-05-07T06:51:57;24.90;72.10
24164;DHT22;12319;49.204;8.116;2023-05-07T06:54:23;26.30;70.70
24164;DHT22;12319;49.204;8.116;2023-05-07T06:56:48;28.00;68.40
24164;DHT22;12319;49.204;8.116;2023-05-07T06:59:14;29.00;65.70
24164;DHT22;12319;49.204;8.116;2023-05-07T07:01:40;29.90;63.40
24164;DHT22;12319;49.204;8.116;2023-05-07T07:04:06;29.90;59.80
24164;DHT22;12319;49.204;8.116;2023-05-07T07:06:31;29.90;59.40
24164;DHT22;12319;49.204;8.116;2023-05-07T07:08:58;30.60;59.60
24164;DHT22;12319;49.204;8.116;2023-05-07T07:11:24;31.70;58.30
24164;DHT22;12319;49.204;8.116;2023-05-07T07:13:49;32.90;57.10
24164;DHT22;12319;49.204;8.116;2023-05-07T07:16:16;34.20;55.70
24164;DHT22;12319;49.204;8.116;2023-05-07T07:18:41;35.30;52.80
24164;DHT22;12319;49.204;8.116;2023-05-07T07:21:07;35.90;51.00
24164;DHT22;12319;49.204;8.116;2023-05-07T07:23:32;36.40;49.80
24164;DHT22;12319;49.204;8.116;2023-05-07T07:25:58;36.70;49.10
24164;DHT22;12319;49.204;8.116;2023-05-07T07:28:23;36.90;48.70
24164;DHT22;12319;49.204;8.116;2023-05-07T07:30:49;37.10;48.40
24164;DHT22;12319;49.204;8.116;2023-05-07T07:33:15;37.70;46.80
24164;DHT22;12319;49.204;8.116;2023-05-07T07:35:42;38.20;46.30
24164;DHT22;12319;49.204;8.116;2023-05-07T07:38:07;38.50;45.90
24164;DHT22;12319;49.204;8.116;2023-05-07T07:40:36;39.00;45.50
24164;DHT22;12319;49.204;8.116;2023-05-07T07:43:01;39.50;43.50
24164;DHT22;12319;49.204;8.116;2023-05-07T07:45:27;39.70;43.40
24164;DHT22;12319;49.204;8.116;2023-05-07T07:47:53;39.30;42.20
24164;DHT22;12319;49.204;8.116;2023-05-07T07:50:18;38.50;42.10
24164;DHT22;12319;49.204;8.116;2023-05-07T07:52:44;37.50;41.80
24164;DHT22;12319;49.204;8.116;2023-05-07T07:55:10;37.30;42.60
24164;DHT22;12319;49.204;8.116;2023-05-07T07:57:36;37.70;42.60
24164;DHT22;12319;49.204;8.116;2023-05-07T08:00:02;38.40;42.50
24164;DHT22;12319;49.204;8.116;2023-05-07T08:02:27;39.30;40.80
24164;DHT22;12319;49.204;8.116;2023-05-07T08:04:53;40.20;41.00
24164;DHT22;12319;49.204;8.116;2023-05-07T08:07:18;40.90;40.30
24164;DHT22;12319;49.204;8.116;2023-05-07T08:09:46;41.40;39.30
24164;DHT22;12319;49.204;8.116;2023-05-07T08:12:11;41.80;38.50
24164;DHT22;12319;49.204;8.116;2023-05-07T08:14:37;42.00;38.10
24164;DHT22;12319;49.204;8.116;2023-05-07T08:17:03;42.00;37.80
24164;DHT22;12319;49.204;8.116;2023-05-07T08:19:28;41.60;37.30
24164;DHT22;12319;49.204;8.116;2023-05-07T08:21:54;40.90;37.00
24164;DHT22;12319;49.204;8.116;2023-05-07T08:24:20;39.80;36.70
24164;DHT22;12319;49.204;8.116;2023-05-07T08:26:47;38.40;37.00
24164;DHT22;12319;49.204;8.116;2023-05-07T08:29:12;36.80;37.30
24164;DHT22;12319;49.204;8.116;2023-05-07T08:31:38;35.70;38.60
24164;DHT22;12319;49.204;8.116;2023-05-07T08:34:05;35.50;38.70
24164;DHT22;12319;49.204;8.116;2023-05-07T08:36:32;35.80;38.70
24164;DHT22;12319;49.204;8.116;2023-05-07T08:38:57;36.10;38.50
24164;DHT22;12319;49.204;8.116;2023-05-07T08:41:23;36.20;38.00
24164;DHT22;12319;49.204;8.116;2023-05-07T08:43:50;36.20;37.80
24164;DHT22;12319;49.204;8.116;2023-05-07T08:46:21;35.70;37.60
24164;DHT22;12319;49.204;8.116;2023-05-07T08:48:50;35.00;38.00
24164;DHT22;12319;49.204;8.116;2023-05-07T08:51:18;34.00;38.50
24164;DHT22;12319;49.204;8.116;2023-05-07T08:53:46;32.90;39.50
24164;DHT22;12319;49.204;8.116;2023-05-07T08:56:14;32.00;40.40
24164;DHT22;12319;49.204;8.116;2023-05-07T08:58:41;31.10;41.10
24164;DHT22;12319;49.204;8.116;2023-05-07T09:01:09;30.40;42.00
24164;DHT22;12319;49.204;8.116;2023-05-07T09:03:37;29.70;42.80
24164;DHT22;12319;49.204;8.116;2023-05-07T09:06:03;29.20;43.50
24164;DHT22;12319;49.204;8.116;2023-05-07T09:08:29;28.80;44.20
24164;DHT22;12319;49.204;8.116;2023-05-07T09:10:54;28.60;44.90
24164;DHT22;12319;49.204;8.116;2023-05-07T09:13:20;28.40;45.10
24164;DHT22;12319;49.204;8.116;2023-05-07T09:15:46;28.30;45.40
24164;DHT22;12319;49.204;8.116;2023-05-07T09:18:12;28.30;45.80
24164;DHT22;12319;49.204;8.116;2023-05-07T09:20:38;28.20;46.10
24164;DHT22;12319;49.204;8.116;2023-05-07T09:23:06;28.20;46.20
24164;DHT22;12319;49.204;8.116;2023-05-07T09:25:33;28.20;46.40
24164;DHT22;12319;49.204;8.116;2023-05-07T09:28:00;28.10;46.40
24164;DHT22;12319;49.204;8.116;2023-05-07T09:30:32;27.60;46.40
24164;DHT22;12319;49.204;8.116;2023-05-07T09:32:59;27.60;47.00
24164;DHT22;12319;49.204;8.116;2023-05-07T09:35:26;27.50;47.50
24164;DHT22;12319;49.204;8.116;2023-05-07T09:37:59;27.20;47.70
24164;DHT22;12319;49.204;8.116;2023-05-07T09:40:27;27.20;48.10
24164;DHT22;12319;49.204;8.116;2023-05-07T09:42:54;27.30;48.30
24164;DHT22;12319;49.204;8.116;2023-05-07T09:45:25;27.30;48.30
24164;DHT22;12319;49.204;8.116;2023-05-07T09:47:54;27.20;48.30
24164;DHT22;12319;49.204;8.116;2023-05-07T09:50:25;27.20;48.60
24164;DHT22;12319;49.204;8.116;2023-05-07T09:52:52;27.10;48.60
24164;DHT22;12319;49.204;8.116;2023-05-07T09:55:18;27.10;48.70
24164;DHT22;12319;49.204;8.116;2023-05-07T09:57:44;27.00;49.00
24164;DHT22;12319;49.204;8.116;2023-05-07T10:00:10;26.90;49.00
24164;DHT22;12319;49.204;8.116;2023-05-07T10:02:36;26.80;49.60
24164;DHT22;12319;49.204;8.116;2023-05-07T10:05:03;27.00;49.30
24164;DHT22;12319;49.204;8.116;2023-05-07T10:07:29;26.80;49.50
24164;DHT22;12319;49.204;8.116;2023-05-07T10:09:55;26.70;49.90
24164;DHT22;12319;49.204;8.116;2023-05-07T10:12:21;26.80;49.90
24164;DHT22;12319;49.204;8.116;2023-05-07T10:14:47;26.80;50.10
24164;DHT22;12319;49.204;8.116;2023-05-07T10:17:16;26.80;50.00
24164;DHT22;12319;49.204;8.116;2023-05-07T10:19:44;26.80;49.90
24164;DHT22;12319;49.204;8.116;2023-05-07T10:22:09;26.60;50.10
24164;DHT22;12319;49.204;8.116;2023-05-07T10:24:36;26.70;50.20
24164;DHT22;12319;49.204;8.116;2023-05-07T10:27:08;26.60;50.20
24164;DHT22;12319;49.204;8.116;2023-05-07T10:32:36;26.50;50.70
24164;DHT22;12319;49.204;8.116;2023-05-07T10:35:06;26.40;50.90
24164;DHT22;12319;49.204;8.116;2023-05-07T10:37:34;26.40;51.20
24164;DHT22;12319;49.204;8.116;2023-05-07T10:40:01;26.30;50.90
24164;DHT22;12319;49.204;8.116;2023-05-07T10:42:26;26.30;51.30
24164;DHT22;12319;49.204;8.116;2023-05-07T10:44:52;26.30;51.40
24164;DHT22;12319;49.204;8.116;2023-05-07T10:47:17;26.40;51.70
24164;DHT22;12319;49.204;8.116;2023-05-07T10:52:17;26.40;51.80
24164;DHT22;12319;49.204;8.116;2023-05-07T10:54:44;26.30;51.80
24164;DHT22;12319;49.204;8.116;2023-05-07T10:59:57;26.30;52.10
24164;DHT22;12319;49.204;8.116;2023-05-07T11:02:22;26.30;52.00
24164;DHT22;12319;49.204;8.116;2023-05-07T11:05:19;26.30;52.20
24164;DHT22;12319;49.204;8.116;2023-05-07T11:07:56;26.40;52.60
24164;DHT22;12319;49.204;8.116;2023-05-07T11:10:22;26.40;52.30
24164;DHT22;12319;49.204;8.116;2023-05-07T11:12:49;26.50;52.50
24164;DHT22;12319;49.204;8.116;2023-05-07T11:15:37;26.60;52.30
24164;DHT22;12319;49.204;8.116;2023-05-07T11:18:03;26.60;52.30
24164;DHT22;12319;49.204;8.116;2023-05-07T11:20:58;26.70;52.30
24164;DHT22;12319;49.204;8.116;2023-05-07T11:26:05;26.80;52.60
24164;DHT22;12319;49.204;8.116;2023-05-07T11:28:39;26.90;53.00
24164;DHT22;12319;49.204;8.116;2023-05-07T11:31:05;26.90;52.30
24164;DHT22;12319;49.204;8.116;2023-05-07T11:33:32;27.00;52.30
24164;DHT22;12319;49.204;8.116;2023-05-07T11:35:58;27.00;52.30
24164;DHT22;12319;49.204;8.116;2023-05-07T11:38:25;27.10;52.10
24164;DHT22;12319;49.204;8.116;2023-05-07T11:40:52;27.10;52.10
24164;DHT22;12319;49.204;8.116;2023-05-07T11:43:17;27.20;52.10
24164;DHT22;12319;49.204;8.116;2023-05-07T11:45:45;27.40;52.40
24164;DHT22;12319;49.204;8.116;2023-05-07T11:48:12;27.50;52.00
24164;DHT22;12319;49.204;8.116;2023-05-07T11:51:08;27.70;52.00
24164;DHT22;12319;49.204;8.116;2023-05-07T11:53:42;27.80;51.60
24164;DHT22;12319;49.204;8.116;2023-05-07T11:56:15;27.90;51.70
24164;DHT22;12319;49.204;8.116;2023-05-07T11:58:42;27.90;51.70
24164;DHT22;12319;49.204;8.116;2023-05-07T12:01:09;28.00;51.50
24164;DHT22;12319;49.204;8.116;2023-05-07T12:03:36;27.90;51.40
24164;DHT22;12319;49.204;8.116;2023-05-07T12:06:05;28.00;51.50
24164;DHT22;12319;49.204;8.116;2023-05-07T12:08:31;28.00;51.40
24164;DHT22;12319;49.204;8.116;2023-05-07T12:10:56;28.00;51.40
24164;DHT22;12319;49.204;8.116;2023-05-07T12:13:23;28.30;51.50
24164;DHT22;12319;49.204;8.116;2023-05-07T12:15:54;28.20;50.80
24164;DHT22;12319;49.204;8.116;2023-05-07T12:18:21;28.30;50.80
24164;DHT22;12319;49.204;8.116;2023-05-07T12:20:47;28.30;51.00
24164;DHT22;12319;49.204;8.116;2023-05-07T12:23:13;28.40;51.10
24164;DHT22;12319;49.204;8.116;2023-05-07T12:25:40;28.50;51.30
24164;DHT22;12319;49.204;8.116;2023-05-07T12:28:16;28.60;51.50
24164;DHT22;12319;49.204;8.116;2023-05-07T12:30:43;28.70;50.90
24164;DHT22;12319;49.204;8.116;2023-05-07T12:33:09;28.70;50.20
24164;DHT22;12319;49.204;8.116;2023-05-07T12:35:40;28.70;50.30
24164;DHT22;12319;49.204;8.116;2023-05-07T12:38:12;28.70;50.40
24164;DHT22;12319;49.204;8.116;2023-05-07T12:40:39;28.90;50.40
24164;DHT22;12319;49.204;8.116;2023-05-07T12:43:05;28.70;49.80
24164;DHT22;12319;49.204;8.116;2023-05-07T12:45:31;28.80;50.00
24164;DHT22;12319;49.204;8.116;2023-05-07T12:48:01;28.70;50.00
24164;DHT22;12319;49.204;8.116;2023-05-07T12:50:31;29.30;49.40
24164;DHT22;12319;49.204;8.116;2023-05-07T12:52:57;29.20;49.80
24164;DHT22;12319;49.204;8.116;2023-05-07T12:55:23;29.70;49.70
24164;DHT22;12319;49.204;8.116;2023-05-07T12:57:49;30.10;49.00
24164;DHT22;12319;49.204;8.116;2023-05-07T13:00:16;30.40;48.30
24164;DHT22;12319;49.204;8.116;2023-05-07T13:02:43;30.70;48.40
24164;DHT22;12319;49.204;8.116;2023-05-07T13:05:12;30.90;48.10
24164;DHT22;12319;49.204;8.116;2023-05-07T13:07:39;31.30;47.80
24164;DHT22;12319;49.204;8.116;2023-05-07T13:10:06;31.40;47.30
24164;DHT22;12319;49.204;8.116;2023-05-07T13:12:32;31.50;47.60
24164;DHT22;12319;49.204;8.116;2023-05-07T13:14:57;31.50;47.40
24164;DHT22;12319;49.204;8.116;2023-05-07T13:17:24;31.40;46.90
24164;DHT22;12319;49.204;8.116;2023-05-07T13:19:49;31.20;46.80
24164;DHT22;12319;49.204;8.116;2023-05-07T13:22:15;30.90;46.90
24164;DHT22;12319;49.204;8.116;2023-05-07T13:24:40;30.50;47.40
24164;DHT22;12319;49.204;8.116;2023-05-07T13:27:08;30.20;47.60
24164;DHT22;12319;49.204;8.116;2023-05-07T13:29:33;30.10;47.50
24164;DHT22;12319;49.204;8.116;2023-05-07T13:31:59;30.00;46.30
24164;DHT22;12319;49.204;8.116;2023-05-07T13:34:25;29.80;47.10
24164;DHT22;12319;49.204;8.116;2023-05-07T13:36:50;29.80;47.90
24164;DHT22;12319;49.204;8.116;2023-05-07T13:39:16;29.80;47.90
24164;DHT22;12319;49.204;8.116;2023-05-07T13:41:42;29.70;48.00
24164;DHT22;12319;49.204;8.116;2023-05-07T13:44:07;29.70;47.90
24164;DHT22;12319;49.204;8.116;2023-05-07T13:46:33;29.70;48.20
24164;DHT22;12319;49.204;8.116;2023-05-07T13:48:58;30.00;47.60
24164;DHT22;12319;49.204;8.116;2023-05-07T13:51:24;30.20;47.50
24164;DHT22;12319;49.204;8.116;2023-05-07T13:53:49;30.10;47.50
24164;DHT22;12319;49.204;8.116;2023-05-07T13:56:15;30.00;47.90
24164;DHT22;12319;49.204;8.116;2023-05-07T13:58:41;29.80;48.20
24164;DHT22;12319;49.204;8.116;2023-05-07T14:01:06;29.60;48.30
24164;DHT22;12319;49.204;8.116;2023-05-07T14:03:32;29.40;48.30
24164;DHT22;12319;49.204;8.116;2023-05-07T14:05:59;29.10;48.50
24164;DHT22;12319;49.204;8.116;2023-05-07T14:08:26;28.80;48.60
24164;DHT22;12319;49.204;8.116;2023-05-07T14:10:52;28.60;49.10
24164;DHT22;12319;49.204;8.116;2023-05-07T14:13:18;28.40;49.50
24164;DHT22;12319;49.204;8.116;2023-05-07T14:15:43;28.10;49.30
24164;DHT22;12319;49.204;8.116;2023-05-07T14:18:12;27.80;49.50
24164;DHT22;12319;49.204;8.116;2023-05-07T14:20:38;27.50;49.90
24164;DHT22;12319;49.204;8.116;2023-05-07T14:23:03;27.30;50.50
24164;DHT22;12319;49.204;8.116;2023-05-07T14:25:29;27.10;50.70
24164;DHT22;12319;49.204;8.116;2023-05-07T14:27:54;27.00;51.10
24164;DHT22;12319;49.204;8.116;2023-05-07T14:30:21;26.90;51.50
24164;DHT22;12319;49.204;8.116;2023-05-07T14:32:49;26.80;51.70
24164;DHT22;12319;49.204;8.116;2023-05-07T14:35:15;26.80;51.80
24164;DHT22;12319;49.204;8.116;2023-05-07T14:37:41;26.60;52.10
24164;DHT22;12319;49.204;8.116;2023-05-07T14:40:07;26.50;52.40
24164;DHT22;12319;49.204;8.116;2023-05-07T14:42:33;26.40;52.80
24164;DHT22;12319;49.204;8.116;2023-05-07T14:44:58;26.30;53.10
24164;DHT22;12319;49.204;8.116;2023-05-07T14:47:23;26.20;53.50
24164;DHT22;12319;49.204;8.116;2023-05-07T14:49:49;26.30;53.90
24164;DHT22;12319;49.204;8.116;2023-05-07T14:52:15;26.30;53.90
24164;DHT22;12319;49.204;8.116;2023-05-07T14:54:40;26.40;54.00
24164;DHT22;12319;49.204;8.116;2023-05-07T14:57:08;26.40;54.10
24164;DHT22;12319;49.204;8.116;2023-05-07T14:59:35;26.40;54.20
24164;DHT22;12319;49.204;8.116;2023-05-07T15:02:01;26.40;54.10
24164;DHT22;12319;49.204;8.116;2023-05-07T15:04:26;26.30;54.20
24164;DHT22;12319;49.204;8.116;2023-05-07T15:06:52;26.10;53.80
24164;DHT22;12319;49.204;8.116;2023-05-07T15:09:19;25.80;53.50
24164;DHT22;12319;49.204;8.116;2023-05-07T15:11:45;25.50;53.30
24164;DHT22;12319;49.204;8.116;2023-05-07T15:14:10;25.30;53.10
24164;DHT22;12319;49.204;8.116;2023-05-07T15:16:36;25.00;52.70
24164;DHT22;12319;49.204;8.116;2023-05-07T15:19:01;24.80;52.60
24164;DHT22;12319;49.204;8.116;2023-05-07T15:21:27;24.70;52.10
24164;DHT22;12319;49.204;8.116;2023-05-07T15:23:52;24.40;52.30
24164;DHT22;12319;49.204;8.116;2023-05-07T15:26:18;24.10;52.20
24164;DHT22;12319;49.204;8.116;2023-05-07T15:28:43;24.10;52.20
24164;DHT22;12319;49.204;8.116;2023-05-07T15:31:09;23.90;52.50
24164;DHT22;12319;49.204;8.116;2023-05-07T15:33:34;23.80;53.10
24164;DHT22;12319;49.204;8.116;2023-05-07T15:36:00;23.60;53.00